Second Mesa, AZ (86043)

9:04 PM MST on October 25, 2014 (GMT -0700)
Winslow-Lindbergh Regional | Change Station
CLOSE
Current Station
Airport
Location: Winslow,
Elevation: 4882 ft
Nearby Weather Stations

Elev 4882 ft 35.03 °N, 110.72 °W | Updated 8 minutes ago

Clear
Clear
60 °F
Feels Like 60 °F
N
6
Wind Variable Wind from SSW

Today
High -- | Low -- °F
--% Chance of Precip.
Yesterday
High -- | Low -- °F
Precip. -- in
6:37 AM 5:33 PM
Waxing Crescent, 5% visible
Pressure 30.03 in
Visibility 10.0 miles
Clouds Clear
Dew Point 46 °F
Humidity 60%
Rainfall 0.00 in
Snow Depth Not available.
UV 0 out of 12
Pollen 4.50 out of 12
Air Quality Not available.
Flu Activity No Activity
METAR KINW 260356Z AUTO 20005KT 10SM CLR 16/08 A3017 RMK AO2 SLP169 T01560078

More Conditions Fewer Conditions

Pressure 30.03 in
Visibility 10.0 miles
Clouds Clear
Dew Point 46 °F
Humidity 60%
Rainfall 0.00 in
Snow Depth Not available.
UV 0 out of 12
Pollen 4.50 out of 12
Air Quality Not available.
Flu Activity No Activity
METAR KINW 260356Z AUTO 20005KT 10SM CLR 16/08 A3017 RMK AO2 SLP169 T01560078

More Conditions Fewer Conditions

10-Day Weather Forecast

Almanac

Astronomy

Oct. 25, 2014 Rise Set
Actual Time 6:37 AM MST 5:33 PM MST
Civil Twilight 6:11 AM MST 6:00 PM MST
Nautical Twilight 5:41 AM MST 6:29 PM MST
Astronomical Twilight 5:11 AM MST 6:59 PM MST
Moon 8:17 AM MST (10/25) 7:02 PM MST (10/25)
Length of Visible Light 11h 48m
Length of Day
10h 56m
Tomorrow will be 2m 4s shorter.
Waxing Crescent, 5% of the Moon is Illuminated
Oct 26
Waxing Crescent
Oct 30
First Quarter
Nov 6
Full
Nov 14
Last Quarter
Nov 22
New

Today's Extremes

State Highs State Lows

Community

WunderPhotos

Upload Photos

1,765,106 photos uploaded!

Nearby

Snow Depth

Station Depth Elevation
Snowslide Canyon 0 in 9730 ft
Promontory 0 in 7930 ft
White Horse Lake 0 in 7180 ft
Baker Butte 0 in 7300 ft
Baldy 2 in 9125 ft

Earthquake Activity

City Distance Mag. Time & Date
No recent earthquake activity has been reported nearby.
Minimum magnitude displayed is 2.5.

Coastal Water Temperatures

Place Temperature
No Stations Reporting

Nearby Weather Stations